sensor_id;sensor_type;location;lat;lon;timestamp;pressure;altitude;pressure_sealevel;temperature;humidity
44044;BME280;29709;52.396;16.796;2023-04-07T00:00:45;102033.63;;;5.62;60.65
44044;BME280;29709;52.396;16.796;2023-04-07T00:03:59;102037.10;;;5.51;60.63
44044;BME280;29709;52.396;16.796;2023-04-07T00:07:12;102035.80;;;5.44;61.30
44044;BME280;29709;52.396;16.796;2023-04-07T00:10:25;102038.52;;;5.44;62.10
44044;BME280;29709;52.396;16.796;2023-04-07T00:13:38;102039.51;;;5.43;61.87
44044;BME280;29709;52.396;16.796;2023-04-07T00:16:51;102027.15;;;5.38;62.65
44044;BME280;29709;52.396;16.796;2023-04-07T00:20:05;102036.06;;;5.27;63.51
44044;BME280;29709;52.396;16.796;2023-04-07T00:23:18;102030.15;;;5.20;64.11
44044;BME280;29709;52.396;16.796;2023-04-07T00:26:32;102027.95;;;5.13;64.57
44044;BME280;29709;52.396;16.796;2023-04-07T00:29:45;102027.37;;;5.08;65.15
44044;BME280;29709;52.396;16.796;2023-04-07T00:32:58;102036.42;;;5.08;65.01
44044;BME280;29709;52.396;16.796;2023-04-07T00:36:12;102039.83;;;5.12;65.00
44044;BME280;29709;52.396;16.796;2023-04-07T00:39:25;102040.61;;;5.14;64.96
44044;BME280;29709;52.396;16.796;2023-04-07T00:42:39;102040.86;;;5.24;64.99
44044;BME280;29709;52.396;16.796;2023-04-07T00:45:53;102036.17;;;5.26;66.62
44044;BME280;29709;52.396;16.796;2023-04-07T00:49:06;102033.44;;;5.26;65.59
44044;BME280;29709;52.396;16.796;2023-04-07T00:52:19;102024.26;;;5.14;66.18
44044;BME280;29709;52.396;16.796;2023-04-07T00:55:41;102025.37;;;4.97;67.23
44044;BME280;29709;52.396;16.796;2023-04-07T00:58:54;102012.57;;;4.85;68.49
44044;BME280;29709;52.396;16.796;2023-04-07T01:02:17;102014.10;;;4.89;67.49
44044;BME280;29709;52.396;16.796;2023-04-07T01:09:10;102007.45;;;4.80;68.79
44044;BME280;29709;52.396;16.796;2023-04-07T01:12:28;102007.35;;;4.68;69.67
44044;BME280;29709;52.396;16.796;2023-04-07T01:15:47;102003.98;;;4.64;71.07
44044;BME280;29709;52.396;16.796;2023-04-07T01:19:20;102001.91;;;4.68;70.09
44044;BME280;29709;52.396;16.796;2023-04-07T01:22:32;101992.87;;;4.67;70.22
44044;BME280;29709;52.396;16.796;2023-04-07T01:32:38;101982.79;;;4.55;71.02
44044;BME280;29709;52.396;16.796;2023-04-07T01:35:54;101991.66;;;4.44;72.33
44044;BME280;29709;52.396;16.796;2023-04-07T01:39:10;101991.48;;;4.33;72.74
44044;BME280;29709;52.396;16.796;2023-04-07T01:42:25;101981.78;;;4.29;72.50
44044;BME280;29709;52.396;16.796;2023-04-07T01:45:40;101981.89;;;4.27;73.15
44044;BME280;29709;52.396;16.796;2023-04-07T01:48:55;101979.16;;;4.27;72.82
44044;BME280;29709;52.396;16.796;2023-04-07T01:52:09;101974.06;;;4.35;72.61
44044;BME280;29709;52.396;16.796;2023-04-07T01:55:23;101973.58;;;4.43;72.39
44044;BME280;29709;52.396;16.796;2023-04-07T01:58:36;101971.84;;;4.42;73.40
44044;BME280;29709;52.396;16.796;2023-04-07T02:01:50;101979.34;;;4.39;73.03
44044;BME280;29709;52.396;16.796;2023-04-07T02:05:05;101974.77;;;4.39;74.34
44044;BME280;29709;52.396;16.796;2023-04-07T02:08:20;101961.71;;;4.44;73.86
44044;BME280;29709;52.396;16.796;2023-04-07T02:11:37;101964.23;;;4.47;72.71
44044;BME280;29709;52.396;16.796;2023-04-07T02:14:53;101958.77;;;4.47;73.46
44044;BME280;29709;52.396;16.796;2023-04-07T02:18:08;101953.55;;;4.44;74.08
44044;BME280;29709;52.396;16.796;2023-04-07T02:21:26;101960.47;;;4.35;75.51
44044;BME280;29709;52.396;16.796;2023-04-07T02:24:43;101953.16;;;4.36;75.34
44044;BME280;29709;52.396;16.796;2023-04-07T02:27:58;101955.45;;;4.29;75.07
44044;BME280;29709;52.396;16.796;2023-04-07T02:31:12;101944.17;;;4.21;75.24
44044;BME280;29709;52.396;16.796;2023-04-07T02:34:25;101939.91;;;4.17;77.14
44044;BME280;29709;52.396;16.796;2023-04-07T02:37:38;101939.80;;;4.19;76.09
44044;BME280;29709;52.396;16.796;2023-04-07T02:40:52;101939.91;;;4.17;76.29
44044;BME280;29709;52.396;16.796;2023-04-07T02:44:05;101938.45;;;4.12;78.37
44044;BME280;29709;52.396;16.796;2023-04-07T02:47:18;101934.75;;;4.13;77.20
44044;BME280;29709;52.396;16.796;2023-04-07T02:50:31;101930.95;;;4.15;77.52
44044;BME280;29709;52.396;16.796;2023-04-07T02:53:44;101923.66;;;4.16;77.38
44044;BME280;29709;52.396;16.796;2023-04-07T02:56:58;101934.55;;;4.16;77.41
44044;BME280;29709;52.396;16.796;2023-04-07T03:00:11;101934.65;;;4.14;77.87
44044;BME280;29709;52.396;16.796;2023-04-07T03:03:25;101927.56;;;4.12;77.90
44044;BME280;29709;52.396;16.796;2023-04-07T03:06:39;101926.10;;;4.06;78.40
44044;BME280;29709;52.396;16.796;2023-04-07T03:09:52;101928.92;;;4.04;78.68
44044;BME280;29709;52.396;16.796;2023-04-07T03:13:05;101921.18;;;3.98;80.22
44044;BME280;29709;52.396;16.796;2023-04-07T03:16:20;101924.00;;;3.97;79.57
44044;BME280;29709;52.396;16.796;2023-04-07T03:19:33;101922.83;;;4.01;79.62
44044;BME280;29709;52.396;16.796;2023-04-07T03:22:46;101921.73;;;4.03;79.66
44044;BME280;29709;52.396;16.796;2023-04-07T03:25:59;101924.67;;;4.00;79.95
44044;BME280;29709;52.396;16.796;2023-04-07T03:29:13;101919.33;;;3.99;79.96
44044;BME280;29709;52.396;16.796;2023-04-07T03:32:26;101923.90;;;3.98;80.08
44044;BME280;29709;52.396;16.796;2023-04-07T03:35:39;101920.21;;;3.99;79.81
44044;BME280;29709;52.396;16.796;2023-04-07T03:38:53;101919.49;;;3.96;80.36
44044;BME280;29709;52.396;16.796;2023-04-07T03:42:06;101910.58;;;3.94;80.78
44044;BME280;29709;52.396;16.796;2023-04-07T03:45:19;101913.12;;;3.97;81.01
44044;BME280;29709;52.396;16.796;2023-04-07T03:48:33;101908.93;;;3.91;81.60
44044;BME280;29709;52.396;16.796;2023-04-07T03:51:46;101902.73;;;3.89;81.56
44044;BME280;29709;52.396;16.796;2023-04-07T03:54:59;101901.85;;;3.89;81.55
44044;BME280;29709;52.396;16.796;2023-04-07T03:58:13;101900.21;;;3.86;82.14
44044;BME280;29709;52.396;16.796;2023-04-07T04:01:26;101895.64;;;3.87;81.89
44044;BME280;29709;52.396;16.796;2023-04-07T04:04:39;101896.70;;;3.84;82.33
44044;BME280;29709;52.396;16.796;2023-04-07T04:07:53;101898.53;;;3.84;82.77
44044;BME280;29709;52.396;16.796;2023-04-07T04:11:06;101892.13;;;3.85;82.83
44044;BME280;29709;52.396;16.796;2023-04-07T04:14:19;101901.35;;;3.82;82.83
44044;BME280;29709;52.396;16.796;2023-04-07T04:17:33;101892.34;;;3.82;82.89
44044;BME280;29709;52.396;16.796;2023-04-07T04:20:47;101885.92;;;3.83;83.49
44044;BME280;29709;52.396;16.796;2023-04-07T04:24:00;101891.35;;;3.83;84.10
44044;BME280;29709;52.396;16.796;2023-04-07T04:27:13;101894.07;;;3.83;83.50
44044;BME280;29709;52.396;16.796;2023-04-07T04:30:27;101898.44;;;3.85;83.89
44044;BME280;29709;52.396;16.796;2023-04-07T04:33:41;101900.11;;;3.88;83.48
44044;BME280;29709;52.396;16.796;2023-04-07T04:36:54;101896.30;;;3.90;83.49
44044;BME280;29709;52.396;16.796;2023-04-07T04:40:08;101896.21;;;3.92;83.27
44044;BME280;29709;52.396;16.796;2023-04-07T04:43:21;101896.88;;;3.95;83.39
44044;BME280;29709;52.396;16.796;2023-04-07T04:46:34;101901.26;;;3.98;83.92
44044;BME280;29709;52.396;16.796;2023-04-07T04:49:48;101909.04;;;3.90;84.16
44044;BME280;29709;52.396;16.796;2023-04-07T04:53:01;101909.14;;;3.88;84.18
44044;BME280;29709;52.396;16.796;2023-04-07T04:56:14;101905.34;;;3.91;84.27
44044;BME280;29709;52.396;16.796;2023-04-07T04:59:28;101903.80;;;3.87;84.34
44044;BME280;29709;52.396;16.796;2023-04-07T05:02:41;101901.85;;;3.89;84.41
44044;BME280;29709;52.396;16.796;2023-04-07T05:05:54;101899.91;;;3.91;84.33
44044;BME280;29709;52.396;16.796;2023-04-07T05:09:08;101896.21;;;3.92;84.49
44044;BME280;29709;52.396;16.796;2023-04-07T05:12:21;101899.59;;;3.95;84.75
44044;BME280;29709;52.396;16.796;2023-04-07T05:15:34;101901.65;;;3.92;84.81
44044;BME280;29709;52.396;16.796;2023-04-07T05:18:47;101902.62;;;3.91;85.05
44044;BME280;29709;52.396;16.796;2023-04-07T05:22:00;101907.29;;;3.89;85.38
44044;BME280;29709;52.396;16.796;2023-04-07T05:25:13;101905.23;;;3.92;85.38
44044;BME280;29709;52.396;16.796;2023-04-07T05:28:27;101901.26;;;3.98;85.22
44044;BME280;29709;52.396;16.796;2023-04-07T05:31:40;101896.59;;;4.00;85.27
44044;BME280;29709;52.396;16.796;2023-04-07T05:34:53;101897.95;;;4.07;85.35
44044;BME280;29709;52.396;16.796;2023-04-07T05:38:07;101900.57;;;4.09;86.22
44044;BME280;29709;52.396;16.796;2023-04-07T05:41:20;101894.71;;;4.15;85.59
44044;BME280;29709;52.396;16.796;2023-04-07T05:44:33;101899.00;;;4.19;86.02
44044;BME280;29709;52.396;16.796;2023-04-07T05:47:46;101903.05;;;4.26;85.82
44044;BME280;29709;52.396;16.796;2023-04-07T05:51:02;101894.01;;;4.25;85.19
44044;BME280;29709;52.396;16.796;2023-04-07T05:54:15;101894.80;;;4.27;85.94
44044;BME280;29709;52.396;16.796;2023-04-07T05:57:29;101900.52;;;4.23;85.32
44044;BME280;29709;52.396;16.796;2023-04-07T06:00:42;101898.90;;;4.20;85.77
44044;BME280;29709;52.396;16.796;2023-04-07T06:03:57;101901.13;;;4.14;85.54
44044;BME280;29709;52.396;16.796;2023-04-07T06:07:11;101898.30;;;4.15;85.90
44044;BME280;29709;52.396;16.796;2023-04-07T06:10:24;101900.15;;;4.15;86.17
44044;BME280;29709;52.396;16.796;2023-04-07T06:13:38;101900.36;;;4.12;86.38
44044;BME280;29709;52.396;16.796;2023-04-07T06:16:51;101900.25;;;4.13;86.70
44044;BME280;29709;52.396;16.796;2023-04-07T06:20:05;101902.98;;;4.13;86.71
44044;BME280;29709;52.396;16.796;2023-04-07T06:23:19;101910.16;;;4.14;86.94
44044;BME280;29709;52.396;16.796;2023-04-07T06:26:32;101909.55;;;4.23;86.68
44044;BME280;29709;52.396;16.796;2023-04-07T06:29:46;101910.23;;;4.27;86.97
44044;BME280;29709;52.396;16.796;2023-04-07T06:32:59;101899.16;;;4.30;86.74
44044;BME280;29709;52.396;16.796;2023-04-07T06:36:13;101900.58;;;4.35;86.78
44044;BME280;29709;52.396;16.796;2023-04-07T06:39:27;101904.87;;;4.40;86.39
44044;BME280;29709;52.396;16.796;2023-04-07T06:42:40;101905.21;;;4.48;86.39
44044;BME280;29709;52.396;16.796;2023-04-07T06:45:53;101904.05;;;4.52;86.64
44044;BME280;29709;52.396;16.796;2023-04-07T06:49:07;101898.11;;;4.59;86.33
44044;BME280;29709;52.396;16.796;2023-04-07T06:52:20;101887.76;;;4.64;86.15
44044;BME280;29709;52.396;16.796;2023-04-07T06:55:33;101889.71;;;4.62;86.15
44044;BME280;29709;52.396;16.796;2023-04-07T06:58:46;101885.25;;;4.61;85.97
44044;BME280;29709;52.396;16.796;2023-04-07T07:02:00;101887.20;;;4.59;86.75
44044;BME280;29709;52.396;16.796;2023-04-07T07:05:13;101892.66;;;4.59;86.66
44044;BME280;29709;52.396;16.796;2023-04-07T07:08:27;101898.87;;;4.61;86.67
44044;BME280;29709;52.396;16.796;2023-04-07T07:11:42;101899.52;;;4.65;86.44
44044;BME280;29709;52.396;16.796;2023-04-07T07:14:55;101891.45;;;4.63;86.57
44044;BME280;29709;52.396;16.796;2023-04-07T07:18:08;101896.69;;;4.67;86.54
44044;BME280;29709;52.396;16.796;2023-04-07T07:21:21;101898.03;;;4.74;86.95
44044;BME280;29709;52.396;16.796;2023-04-07T07:24:34;101887.37;;;4.83;86.48
44044;BME280;29709;52.396;16.796;2023-04-07T07:27:48;101898.06;;;4.86;86.16
44044;BME280;29709;52.396;16.796;2023-04-07T07:31:10;101884.77;;;4.82;86.74
44044;BME280;29709;52.396;16.796;2023-04-07T07:34:28;101893.05;;;4.80;86.33
44044;BME280;29709;52.396;16.796;2023-04-07T07:38:49;101906.34;;;4.85;86.29
44044;BME280;29709;52.396;16.796;2023-04-07T07:42:03;101911.57;;;4.88;86.64
44044;BME280;29709;52.396;16.796;2023-04-07T07:45:16;101909.64;;;4.90;86.78
44044;BME280;29709;52.396;16.796;2023-04-07T07:48:31;101909.72;;;4.88;86.98
44044;BME280;29709;52.396;16.796;2023-04-07T07:51:44;101903.41;;;4.88;87.17
44044;BME280;29709;52.396;16.796;2023-04-07T07:54:58;101908.74;;;4.89;86.83
44044;BME280;29709;52.396;16.796;2023-04-07T07:58:12;101904.09;;;4.91;87.54
44044;BME280;29709;52.396;16.796;2023-04-07T08:01:25;101906.59;;;4.95;87.14
44044;BME280;29709;52.396;16.796;2023-04-07T08:04:38;101905.38;;;4.99;87.86
44044;BME280;29709;52.396;16.796;2023-04-07T08:07:52;101904.40;;;5.00;87.46
44044;BME280;29709;52.396;16.796;2023-04-07T08:11:07;101913.66;;;4.97;87.54
44044;BME280;29709;52.396;16.796;2023-04-07T08:14:20;101910.64;;;5.02;87.33
44044;BME280;29709;52.396;16.796;2023-04-07T08:17:33;101914.13;;;5.04;87.32
44044;BME280;29709;52.396;16.796;2023-04-07T08:20:46;101909.67;;;5.03;87.86
44044;BME280;29709;52.396;16.796;2023-04-07T08:23:59;101911.41;;;5.04;88.33
44044;BME280;29709;52.396;16.796;2023-04-07T08:27:13;101915.66;;;5.08;88.03
44044;BME280;29709;52.396;16.796;2023-04-07T08:30:26;101907.59;;;5.06;87.95
44044;BME280;29709;52.396;16.796;2023-04-07T08:33:39;101915.77;;;5.06;88.31
44044;BME280;29709;52.396;16.796;2023-04-07T08:36:53;101916.98;;;5.15;88.65
44044;BME280;29709;52.396;16.796;2023-04-07T08:40:06;101915.36;;;5.12;88.39
44044;BME280;29709;52.396;16.796;2023-04-07T08:43:21;101921.23;;;5.19;88.52
44044;BME280;29709;52.396;16.796;2023-04-07T08:46:37;101925.82;;;5.18;88.07
44044;BME280;29709;52.396;16.796;2023-04-07T08:49:53;101929.98;;;5.24;88.17
44044;BME280;29709;52.396;16.796;2023-04-07T08:53:11;101932.26;;;5.30;88.21
44044;BME280;29709;52.396;16.796;2023-04-07T08:56:28;101930.23;;;5.34;87.87
44044;BME280;29709;52.396;16.796;2023-04-07T08:59:44;101926.40;;;5.36;88.94
44044;BME280;29709;52.396;16.796;2023-04-07T09:03:03;101924.01;;;5.44;88.08
44044;BME280;29709;52.396;16.796;2023-04-07T09:06:17;101917.80;;;5.42;87.97
44044;BME280;29709;52.396;16.796;2023-04-07T09:09:30;101914.09;;;5.43;88.05
44044;BME280;29709;52.396;16.796;2023-04-07T09:12:43;101914.28;;;5.40;88.83
44044;BME280;29709;52.396;16.796;2023-04-07T09:16:00;101918.76;;;5.41;88.92
44044;BME280;29709;52.396;16.796;2023-04-07T09:19:13;101919.21;;;5.48;89.27
44044;BME280;29709;52.396;16.796;2023-04-07T09:22:42;101916.92;;;5.55;88.87
44044;BME280;29709;52.396;16.796;2023-04-07T09:25:51;101919.44;;;5.58;88.67
44044;BME280;29709;52.396;16.796;2023-04-07T09:29:05;101924.54;;;5.62;88.70
44044;BME280;29709;52.396;16.796;2023-04-07T09:35:53;101912.77;;;5.74;88.29
44044;BME280;29709;52.396;16.796;2023-04-07T09:39:07;101914.72;;;5.72;88.34
44044;BME280;29709;52.396;16.796;2023-04-07T09:42:21;101915.39;;;5.76;88.54
44044;BME280;29709;52.396;16.796;2023-04-07T09:45:35;101908.72;;;5.80;88.38
44044;BME280;29709;52.396;16.796;2023-04-07T09:49:00;101907.85;;;5.79;88.70
44044;BME280;29709;52.396;16.796;2023-04-07T09:52:16;101907.74;;;5.81;88.71
44044;BME280;29709;52.396;16.796;2023-04-07T09:55:33;101902.73;;;5.88;88.45
44044;BME280;29709;52.396;16.796;2023-04-07T09:58:49;101907.32;;;6.00;88.61
44044;BME280;29709;52.396;16.796;2023-04-07T10:02:06;101893.43;;;6.03;87.97
44044;BME280;29709;52.396;16.796;2023-04-07T10:05:20;101899.97;;;6.13;88.58
44044;BME280;29709;52.396;16.796;2023-04-07T10:08:36;101896.91;;;6.18;88.48
44044;BME280;29709;52.396;16.796;2023-04-07T10:11:50;101896.80;;;6.19;88.48
44044;BME280;29709;52.396;16.796;2023-04-07T10:15:05;101891.45;;;6.18;88.30
44044;BME280;29709;52.396;16.796;2023-04-07T10:18:20;101893.52;;;6.27;88.35
44044;BME280;29709;52.396;16.796;2023-04-07T10:21:38;101898.84;;;6.28;88.45
44044;BME280;29709;52.396;16.796;2023-04-07T10:28:17;101891.84;;;6.37;88.46
44044;BME280;29709;52.396;16.796;2023-04-07T10:31:34;101890.38;;;6.44;88.31
44044;BME280;29709;52.396;16.796;2023-04-07T10:34:57;101891.37;;;6.43;87.78
44044;BME280;29709;52.396;16.796;2023-04-07T10:38:12;101890.48;;;6.43;88.19
44044;BME280;29709;52.396;16.796;2023-04-07T10:41:36;101886.32;;;6.50;88.41
44044;BME280;29709;52.396;16.796;2023-04-07T10:44:49;101876.45;;;6.60;88.17
44044;BME280;29709;52.396;16.796;2023-04-07T10:48:09;101876.32;;;6.61;87.99
44044;BME280;29709;52.396;16.796;2023-04-07T10:51:23;101872.84;;;6.59;88.03
44044;BME280;29709;52.396;16.796;2023-04-07T10:54:38;101868.37;;;6.58;87.91
44044;BME280;29709;52.396;16.796;2023-04-07T11:01:17;101869.87;;;6.62;88.57
44044;BME280;29709;52.396;16.796;2023-04-07T11:04:38;101876.49;;;6.71;88.01
44044;BME280;29709;52.396;16.796;2023-04-07T11:07:52;101880.84;;;6.74;88.41
44044;BME280;29709;52.396;16.796;2023-04-07T11:11:11;101889.46;;;6.80;88.27
44044;BME280;29709;52.396;16.796;2023-04-07T11:14:25;101887.23;;;6.85;88.25
44044;BME280;29709;52.396;16.796;2023-04-07T11:17:39;101885.24;;;6.87;88.75
44044;BME280;29709;52.396;16.796;2023-04-07T11:20:54;101886.15;;;6.88;88.18
44044;BME280;29709;52.396;16.796;2023-04-07T11:24:09;101876.08;;;6.88;88.13
44044;BME280;29709;52.396;16.796;2023-04-07T11:27:23;101868.26;;;6.95;88.05
44044;BME280;29709;52.396;16.796;2023-04-07T11:30:44;101878.95;;;6.98;88.61
44044;BME280;29709;52.396;16.796;2023-04-07T11:34:03;101881.34;;;7.03;88.53
44044;BME280;29709;52.396;16.796;2023-04-07T11:37:19;101883.33;;;7.01;87.83
44044;BME280;29709;52.396;16.796;2023-04-07T11:40:34;101883.67;;;6.96;88.36
44044;BME280;29709;52.396;16.796;2023-04-07T11:47:13;101863.45;;;6.99;89.17
44044;BME280;29709;52.396;16.796;2023-04-07T11:53:55;101873.14;;;7.03;88.74
44044;BME280;29709;52.396;16.796;2023-04-07T11:57:08;101861.96;;;7.06;89.19
44044;BME280;29709;52.396;16.796;2023-04-07T12:00:24;101852.55;;;7.10;88.55
44044;BME280;29709;52.396;16.796;2023-04-07T12:07:10;101857.77;;;7.13;88.81
44044;BME280;29709;52.396;16.796;2023-04-07T12:10:24;101855.90;;;7.13;88.96
44044;BME280;29709;52.396;16.796;2023-04-07T12:13:40;101859.12;;;7.18;88.97
44044;BME280;29709;52.396;16.796;2023-04-07T12:16:54;101850.30;;;7.15;88.46
44044;BME280;29709;52.396;16.796;2023-04-07T12:20:10;101860.37;;;7.14;88.50
44044;BME280;29709;52.396;16.796;2023-04-07T12:23:24;101858.38;;;7.16;89.04
44044;BME280;29709;52.396;16.796;2023-04-07T12:26:37;101855.78;;;7.15;88.92
44044;BME280;29709;52.396;16.796;2023-04-07T12:29:51;101858.91;;;7.21;89.41
44044;BME280;29709;52.396;16.796;2023-04-07T12:33:04;101857.05;;;7.22;89.28
44044;BME280;29709;52.396;16.796;2023-04-07T12:36:18;101859.41;;;7.27;89.18
44044;BME280;29709;52.396;16.796;2023-04-07T12:39:31;101852.34;;;7.35;88.79
44044;BME280;29709;52.396;16.796;2023-04-07T12:42:45;101861.54;;;7.34;88.95
44044;BME280;29709;52.396;16.796;2023-04-07T12:45:58;101861.06;;;7.40;88.99
44044;BME280;29709;52.396;16.796;2023-04-07T12:49:11;101861.41;;;7.36;88.49
44044;BME280;29709;52.396;16.796;2023-04-07T12:52:24;101856.55;;;7.39;89.09
44044;BME280;29709;52.396;16.796;2023-04-07T12:55:38;101856.32;;;7.31;88.46
44044;BME280;29709;52.396;16.796;2023-04-07T12:58:51;101863.01;;;7.27;88.56
44044;BME280;29709;52.396;16.796;2023-04-07T13:02:05;101864.27;;;7.34;89.15
44044;BME280;29709;52.396;16.796;2023-04-07T13:05:18;101859.55;;;7.36;88.73
44044;BME280;29709;52.396;16.796;2023-04-07T13:08:31;101854.81;;;7.38;88.98
44044;BME280;29709;52.396;16.796;2023-04-07T13:11:45;101852.73;;;7.42;89.12
44044;BME280;29709;52.396;16.796;2023-04-07T13:14:58;101855.46;;;7.42;89.49
44044;BME280;29709;52.396;16.796;2023-04-07T13:18:11;101858.95;;;7.44;89.58
44044;BME280;29709;52.396;16.796;2023-04-07T13:21:24;101865.27;;;7.33;89.58
44044;BME280;29709;52.396;16.796;2023-04-07T13:24:38;101857.83;;;7.46;89.60
44044;BME280;29709;52.396;16.796;2023-04-07T13:27:51;101851.13;;;7.50;89.31
44044;BME280;29709;52.396;16.796;2023-04-07T13:31:04;101849.26;;;7.51;89.16
44044;BME280;29709;52.396;16.796;2023-04-07T13:34:19;101852.36;;;7.46;89.04
44044;BME280;29709;52.396;16.796;2023-04-07T13:37:32;101847.26;;;7.42;89.37
44044;BME280;29709;52.396;16.796;2023-04-07T13:40:45;101848.26;;;7.41;89.34
44044;BME280;29709;52.396;16.796;2023-04-07T13:44:01;101852.95;;;7.39;89.59
44044;BME280;29709;52.396;16.796;2023-04-07T13:47:16;101844.53;;;7.42;89.84
44044;BME280;29709;52.396;16.796;2023-04-07T13:50:35;101836.45;;;7.40;90.27
44044;BME280;29709;52.396;16.796;2023-04-07T13:53:49;101834.45;;;7.42;90.24
44044;BME280;29709;52.396;16.796;2023-04-07T13:57:02;101838.80;;;7.45;91.43
44044;BME280;29709;52.396;16.796;2023-04-07T14:00:18;101833.82;;;7.50;91.03
44044;BME280;29709;52.396;16.796;2023-04-07T14:03:31;101841.42;;;7.58;90.87
44044;BME280;29709;52.396;16.796;2023-04-07T14:06:44;101836.69;;;7.60;90.57
44044;BME280;29709;52.396;16.796;2023-04-07T14:09:58;101830.85;;;7.64;91.28
44044;BME280;29709;52.396;16.796;2023-04-07T14:13:11;101825.65;;;7.72;90.78
44044;BME280;29709;52.396;16.796;2023-04-07T14:16:24;101824.89;;;7.81;91.00
44044;BME280;29709;52.396;16.796;2023-04-07T14:19:37;101825.51;;;7.85;90.97
44044;BME280;29709;52.396;16.796;2023-04-07T14:22:51;101826.37;;;7.86;90.68
44044;BME280;29709;52.396;16.796;2023-04-07T14:26:08;101828.23;;;7.85;90.53
44044;BME280;29709;52.396;16.796;2023-04-07T14:29:23;101830.59;;;7.90;91.07
44044;BME280;29709;52.396;16.796;2023-04-07T14:32:36;101829.10;;;7.86;90.57
44044;BME280;29709;52.396;16.796;2023-04-07T14:35:49;101826.99;;;7.78;90.94
44044;BME280;29709;52.396;16.796;2023-04-07T14:39:04;101821.91;;;7.73;91.18
44044;BME280;29709;52.396;16.796;2023-04-07T14:42:18;101829.12;;;7.74;91.10
44044;BME280;29709;52.396;16.796;2023-04-07T14:45:33;101820.91;;;7.74;91.67
44044;BME280;29709;52.396;16.796;2023-04-07T14:48:50;101826.24;;;7.76;91.41
44044;BME280;29709;52.396;16.796;2023-04-07T14:52:06;101824.99;;;7.80;91.43
44044;BME280;29709;52.396;16.796;2023-04-07T14:55:19;101824.99;;;7.80;91.81
44044;BME280;29709;52.396;16.796;2023-04-07T14:58:33;101827.13;;;7.76;91.47
44044;BME280;29709;52.396;16.796;2023-04-07T15:01:51;101826.86;;;7.79;91.51
44044;BME280;29709;52.396;16.796;2023-04-07T15:05:05;101823.63;;;7.86;91.83
44044;BME280;29709;52.396;16.796;2023-04-07T15:08:18;101835.93;;;7.91;91.79
44044;BME280;29709;52.396;16.796;2023-04-07T15:11:32;101828.72;;;7.90;91.42
44044;BME280;29709;52.396;16.796;2023-04-07T15:14:45;101825.11;;;7.90;91.63
44044;BME280;29709;52.396;16.796;2023-04-07T15:17:59;101829.23;;;7.95;91.90
44044;BME280;29709;52.396;16.796;2023-04-07T15:21:13;101818.39;;;8.05;91.68
44044;BME280;29709;52.396;16.796;2023-04-07T15:24:27;101828.81;;;8.11;91.23
44044;BME280;29709;52.396;16.796;2023-04-07T15:27:40;101830.05;;;8.18;91.50
44044;BME280;29709;52.396;16.796;2023-04-07T15:30:53;101822.84;;;8.17;91.32
44044;BME280;29709;52.396;16.796;2023-04-07T15:34:07;101825.08;;;8.23;91.39
44044;BME280;29709;52.396;16.796;2023-04-07T15:37:20;101815.45;;;8.29;91.05
44044;BME280;29709;52.396;16.796;2023-04-07T15:40:36;101827.89;;;8.33;90.53
44044;BME280;29709;52.396;16.796;2023-04-07T15:43:50;101818.20;;;8.29;90.91
44044;BME280;29709;52.396;16.796;2023-04-07T15:47:03;101824.57;;;8.18;91.11
44044;BME280;29709;52.396;16.796;2023-04-07T15:50:16;101819.84;;;8.20;91.32
44044;BME280;29709;52.396;16.796;2023-04-07T15:53:29;101818.59;;;8.24;91.00
44044;BME280;29709;52.396;16.796;2023-04-07T15:56:43;101816.92;;;8.33;91.27
44044;BME280;29709;52.396;16.796;2023-04-07T15:59:56;101815.96;;;8.34;91.72
44044;BME280;29709;52.396;16.796;2023-04-07T16:03:09;101809.38;;;8.36;91.57
44044;BME280;29709;52.396;16.796;2023-04-07T16:06:22;101813.85;;;8.37;90.81
44044;BME280;29709;52.396;16.796;2023-04-07T16:09:36;101819.44;;;8.47;91.04
44044;BME280;29709;52.396;16.796;2023-04-07T16:12:50;101813.31;;;8.55;90.97
44044;BME280;29709;52.396;16.796;2023-04-07T16:16:03;101817.51;;;8.59;90.92
44044;BME280;29709;52.396;16.796;2023-04-07T16:19:19;101821.39;;;8.56;90.03
44044;BME280;29709;52.396;16.796;2023-04-07T16:22:32;101831.34;;;8.57;90.48
44044;BME280;29709;52.396;16.796;2023-04-07T16:25:45;101822.76;;;8.51;90.34
44044;BME280;29709;52.396;16.796;2023-04-07T16:28:58;101820.76;;;8.53;90.85
44044;BME280;29709;52.396;16.796;2023-04-07T16:32:12;101826.24;;;8.53;90.91
44044;BME280;29709;52.396;16.796;2023-04-07T16:35:25;101824.38;;;8.53;90.45
44044;BME280;29709;52.396;16.796;2023-04-07T16:38:38;101815.77;;;8.58;90.75
44044;BME280;29709;52.396;16.796;2023-04-07T16:41:52;101816.91;;;8.55;90.77
44044;BME280;29709;52.396;16.796;2023-04-07T16:45:06;101819.11;;;8.61;90.77
44044;BME280;29709;52.396;16.796;2023-04-07T16:48:19;101816.23;;;8.63;90.65
44044;BME280;29709;52.396;16.796;2023-04-07T16:51:32;101824.22;;;8.66;90.26
44044;BME280;29709;52.396;16.796;2023-04-07T16:54:46;101830.30;;;8.70;90.47
44044;BME280;29709;52.396;16.796;2023-04-07T16:57:59;101827.15;;;8.74;90.54
44044;BME280;29709;52.396;16.796;2023-04-07T17:01:13;101833.50;;;8.75;90.12
44044;BME280;29709;52.396;16.796;2023-04-07T17:04:26;101828.88;;;8.75;90.51
44044;BME280;29709;52.396;16.796;2023-04-07T17:07:39;101827.91;;;8.76;89.65
44044;BME280;29709;52.396;16.796;2023-04-07T17:10:52;101834.26;;;8.77;90.84
44044;BME280;29709;52.396;16.796;2023-04-07T17:14:06;101835.13;;;8.77;90.35
44044;BME280;29709;52.396;16.796;2023-04-07T17:17:19;101842.81;;;8.83;90.41
44044;BME280;29709;52.396;16.796;2023-04-07T17:20:32;101848.65;;;8.90;89.97
44044;BME280;29709;52.396;16.796;2023-04-07T17:23:47;101847.05;;;8.87;89.77
44044;BME280;29709;52.396;16.796;2023-04-07T17:27:01;101854.48;;;8.96;90.06